Time;durP1;ratioP1;P1;durP2;ratioP2;P2;SDS_P1;SDS_P2;PMS_P1;PMS_P2;Temp;Humidity;BMP_temperature;BMP_pressure;BME280_temperature;BME280_humidity;BME280_pressure;Samples;Min_cycle;Max_cycle;Signal;HPM_P1;HPM_P2
2021/07/23 00:01:33;;;;;;;14.30;10.88;;;512.20;2380.80;;;;;;4940480;29;20438;-84
2021/07/23 00:03:59;;;;;;;16.58;9.52;;;512.10;2380.80;;;;;;4939669;29;20065;-83
2021/07/23 00:06:25;;;;;;;14.38;8.95;;;512.00;2380.80;;;;;;4940376;29;20027;-82
2021/07/23 00:08:51;;;;;;;15.63;9.00;;;512.10;2380.80;;;;;;4940713;28;20388;-86
2021/07/23 00:11:17;;;;;;;13.55;9.50;;;487.30;2380.80;;;;;;4954306;28;20026;-86
2021/07/23 00:13:43;;;;;;;12.43;8.57;;;512.00;2380.80;;;;;;4956332;29;20540;-88
2021/07/23 00:16:09;;;;;;;15.00;8.23;;;487.30;2380.80;;;;;;4941129;28;20057;-87
2021/07/23 00:18:35;;;;;;;13.27;8.00;;;487.30;2380.80;;;;;;4954303;28;20536;-88
2021/07/23 00:21:01;;;;;;;11.75;7.63;;;512.00;2380.80;;;;;;4958128;28;20038;-88
2021/07/23 00:23:28;;;;;;;13.90;8.18;;;487.10;2380.80;;;;;;4954570;28;20030;-88
2021/07/23 00:25:54;;;;;;;10.40;8.10;;;487.30;2380.80;;;;;;4948256;29;20580;-88
2021/07/23 00:28:20;;;;;;;12.48;8.00;;;487.20;2380.80;;;;;;4940969;29;20027;-89
2021/07/23 00:30:46;;;;;;;12.77;9.05;;;487.20;2380.80;;;;;;4943200;28;20401;-88
2021/07/23 00:33:12;;;;;;;11.45;8.07;;;487.10;2380.80;;;;;;4953351;28;20023;-87
2021/07/23 00:35:39;;;;;;;13.20;8.00;;;487.30;2380.80;;;;;;4959886;28;20480;-87
2021/07/23 00:38:05;;;;;;;12.50;8.32;;;487.20;2380.80;;;;;;4945904;29;20027;-88
2021/07/23 00:40:34;;;;;;;13.18;7.70;;;487.20;2380.80;;;;;;4940757;29;20033;-88
2021/07/23 00:43:00;;;;;;;10.40;7.97;;;487.10;2380.80;;;;;;4948987;28;20027;-87
2021/07/23 00:45:27;;;;;;;10.68;7.38;;;487.10;2380.80;;;;;;4960052;28;20022;-88
2021/07/23 00:47:55;;;;;;;13.38;8.05;;;487.00;2380.80;;;;;;4959828;28;20038;-89
2021/07/23 00:50:22;;;;;;;16.15;8.27;;;486.90;2380.80;;;;;;4959905;28;20484;-89
2021/07/23 00:52:49;;;;;;;13.77;8.00;;;486.70;2380.80;;;;;;4960015;28;20085;-88
2021/07/23 00:55:15;;;;;;;11.45;8.23;;;486.90;2380.80;;;;;;4960279;28;20469;-88
2021/07/23 00:57:43;;;;;;;10.93;8.20;;;486.90;2380.80;;;;;;4959714;28;20058;-88
2021/07/23 01:00:09;;;;;;;11.02;7.97;;;486.90;2380.80;;;;;;4958496;28;20023;-88
2021/07/23 01:02:35;;;;;;;11.85;7.95;;;486.80;2380.80;;;;;;4959561;28;20085;-88
2021/07/23 01:05:03;;;;;;;13.35;8.43;;;486.60;2380.80;;;;;;4959653;28;20030;-88
2021/07/23 01:07:30;;;;;;;11.20;7.30;;;486.60;2380.80;;;;;;4959658;28;20033;-89
2021/07/23 01:09:58;;;;;;;8.88;7.55;;;486.60;2380.80;;;;;;4959098;28;20030;-88
2021/07/23 01:12:24;;;;;;;13.15;8.40;;;486.70;2380.80;;;;;;4959550;28;20031;-88
2021/07/23 01:14:50;;;;;;;13.82;8.40;;;486.50;2380.80;;;;;;4959071;28;20384;-88
2021/07/23 01:17:16;;;;;;;13.68;7.72;;;486.60;2380.80;;;;;;4959051;28;20031;-88
2021/07/23 01:20:05;;;;;;;13.23;8.23;;;486.60;2380.80;;;;;;4959339;28;20034;-87
2021/07/23 01:22:32;;;;;;;9.90;7.97;;;486.60;2380.80;;;;;;4959587;28;20043;-88
2021/07/23 01:24:58;;;;;;;11.38;8.65;;;486.50;2380.80;;;;;;4959366;28;20046;-87
2021/07/23 01:27:29;;;;;;;12.13;8.07;;;486.60;2380.80;;;;;;4959323;28;20027;-88
2021/07/23 01:30:09;;;;;;;11.60;8.35;;;486.60;2380.80;;;;;;4958932;28;20073;-88
2021/07/23 01:32:35;;;;;;;10.57;7.47;;;486.70;2380.80;;;;;;4958875;28;20130;-88
2021/07/23 01:35:02;;;;;;;11.15;8.35;;;486.70;2380.80;;;;;;4958827;28;20082;-87
2021/07/23 01:37:28;;;;;;;13.07;8.00;;;486.70;2380.80;;;;;;4976346;28;20035;-88
2021/07/23 01:39:55;;;;;;;12.02;8.07;;;486.60;2380.80;;;;;;4959036;28;20051;-87
2021/07/23 01:42:21;;;;;;;13.00;8.25;;;486.50;2380.80;;;;;;4959251;28;20031;-88
2021/07/23 01:44:47;;;;;;;11.10;7.93;;;486.40;2380.80;;;;;;4959368;28;20027;-87
2021/07/23 01:47:13;;;;;;;11.15;7.90;;;486.40;2380.80;;;;;;4959367;28;20082;-87
2021/07/23 01:49:39;;;;;;;10.40;7.72;;;461.50;2380.80;;;;;;4959340;28;20468;-87
2021/07/23 01:52:05;;;;;;;15.10;9.35;;;461.40;2380.80;;;;;;4960062;28;20027;-88
2021/07/23 01:54:30;;;;;;;13.23;8.55;;;461.40;2380.80;;;;;;4959415;28;20491;-88
2021/07/23 01:56:56;;;;;;;14.68;8.00;;;461.40;2380.80;;;;;;4958698;28;20035;-88
2021/07/23 01:59:22;;;;;;;9.88;7.63;;;461.50;2380.80;;;;;;4958520;28;20039;-88
2021/07/23 02:01:48;;;;;;;11.55;8.63;;;461.50;2380.80;;;;;;4958670;28;20026;-88
2021/07/23 02:04:14;;;;;;;14.65;8.73;;;461.30;2380.80;;;;;;4958570;28;20493;-87
2021/07/23 02:06:39;;;;;;;10.55;7.68;;;461.20;2380.80;;;;;;4958534;28;20031;-89
2021/07/23 02:09:05;;;;;;;12.57;8.65;;;461.20;2380.80;;;;;;4958703;28;20142;-87
2021/07/23 02:11:31;;;;;;;11.43;7.97;;;461.30;2380.80;;;;;;4958496;28;20417;-88
2021/07/23 02:14:03;;;;;;;11.40;7.85;;;461.20;2380.80;;;;;;4958483;28;20088;-87
2021/07/23 02:16:29;;;;;;;12.47;7.97;;;461.40;2380.80;;;;;;4958489;28;20476;-88
2021/07/23 02:18:55;;;;;;;12.23;8.63;;;461.40;2380.80;;;;;;4958468;28;20027;-87
2021/07/23 02:21:20;;;;;;;9.45;7.45;;;461.40;2380.80;;;;;;4958730;28;20035;-88
2021/07/23 02:23:46;;;;;;;10.55;8.52;;;461.50;2380.80;;;;;;4960502;28;20427;-86
2021/07/23 02:26:20;;;;;;;13.18;7.85;;;461.50;2380.80;;;;;;4961449;28;20027;-87
2021/07/23 02:28:46;;;;;;;11.95;8.23;;;461.40;2380.80;;;;;;4961746;28;20468;-87
2021/07/23 02:31:12;;;;;;;12.50;7.63;;;461.30;2380.80;;;;;;4961718;28;20138;-88
2021/07/23 02:33:39;;;;;;;11.20;8.63;;;461.50;2380.80;;;;;;4961939;28;20027;-87
2021/07/23 02:36:05;;;;;;;11.23;7.93;;;461.50;2380.80;;;;;;4961754;28;20038;-89
2021/07/23 02:38:31;;;;;;;12.32;8.25;;;461.40;2380.80;;;;;;4962178;28;20122;-88
2021/07/23 02:40:56;;;;;;;13.18;7.63;;;461.40;2380.80;;;;;;4962208;28;20121;-88
2021/07/23 02:43:23;;;;;;;9.82;7.53;;;461.50;2380.80;;;;;;4962101;28;20097;-87
2021/07/23 02:45:49;;;;;;;14.38;8.30;;;461.50;2380.80;;;;;;4962001;28;20031;-89
2021/07/23 02:48:15;;;;;;;12.88;8.10;;;461.40;2380.80;;;;;;4962072;28;20031;-88
2021/07/23 02:50:41;;;;;;;14.10;8.25;;;461.50;2380.80;;;;;;4962185;28;20023;-88
2021/07/23 02:53:07;;;;;;;11.00;8.20;;;461.50;2380.80;;;;;;4961901;28;20030;-88
2021/07/23 02:55:34;;;;;;;13.65;9.15;;;461.50;2380.80;;;;;;4961440;28;20027;-89
2021/07/23 02:58:00;;;;;;;11.57;7.82;;;461.50;2380.80;;;;;;4961829;28;20035;-88
2021/07/23 03:00:26;;;;;;;11.07;7.75;;;461.40;2380.80;;;;;;4961663;28;20027;-87
2021/07/23 03:02:52;;;;;;;11.07;8.35;;;461.50;2380.80;;;;;;4961815;28;20440;-88
2021/07/23 03:05:17;;;;;;;9.63;7.20;;;461.50;2380.80;;;;;;4961553;28;20034;-87
2021/07/23 03:07:44;;;;;;;10.82;8.13;;;461.50;2380.80;;;;;;4961552;28;20366;-89
2021/07/23 03:10:10;;;;;;;12.75;8.65;;;461.50;2380.80;;;;;;4961529;28;20432;-88
2021/07/23 03:12:36;;;;;;;12.05;8.27;;;461.40;2380.80;;;;;;4961430;28;20030;-88
2021/07/23 03:15:03;;;;;;;10.75;7.32;;;461.50;2380.80;;;;;;4961384;28;20114;-88
2021/07/23 03:17:29;;;;;;;12.57;7.72;;;461.40;2380.80;;;;;;4961490;28;20538;-85
2021/07/23 03:19:55;;;;;;;12.02;8.57;;;461.50;2380.80;;;;;;4961560;28;20117;-88
2021/07/23 03:22:21;;;;;;;12.30;8.32;;;461.40;2380.80;;;;;;4961495;28;20461;-88
2021/07/23 03:24:47;;;;;;;10.00;8.35;;;461.40;2380.80;;;;;;4961355;28;20114;-86
2021/07/23 03:27:13;;;;;;;11.00;7.95;;;461.20;2380.80;;;;;;4961501;28;20035;-88
2021/07/23 03:29:39;;;;;;;13.75;8.95;;;461.30;2380.80;;;;;;4961057;28;20464;-87
2021/07/23 03:32:05;;;;;;;13.60;8.55;;;461.20;2380.80;;;;;;4960726;28;20055;-87
2021/07/23 03:34:31;;;;;;;13.43;8.10;;;461.10;2380.80;;;;;;4961229;28;20038;-89
2021/07/23 03:36:57;;;;;;;13.60;8.55;;;461.10;2380.80;;;;;;4961167;28;20035;-88
2021/07/23 03:39:23;;;;;;;11.10;7.93;;;461.10;2380.80;;;;;;4960784;28;20034;-87
2021/07/23 03:41:49;;;;;;;14.35;8.38;;;461.10;2380.80;;;;;;4960719;28;20030;-87
2021/07/23 03:44:15;;;;;;;12.90;8.07;;;461.20;2380.80;;;;;;4977936;28;20130;-87
2021/07/23 03:46:40;;;;;;;13.77;7.85;;;461.20;2380.80;;;;;;4961053;28;20373;-87
2021/07/23 03:49:06;;;;;;;11.30;8.68;;;461.20;2380.80;;;;;;4960917;28;20485;-87
2021/07/23 03:51:32;;;;;;;12.00;8.45;;;461.20;2380.80;;;;;;4961030;28;20058;-88
2021/07/23 03:53:58;;;;;;;10.02;8.00;;;461.30;2380.80;;;;;;4960831;28;20437;-87
2021/07/23 03:56:24;;;;;;;13.98;8.90;;;461.30;2380.80;;;;;;4960511;28;20035;-87
2021/07/23 03:58:53;;;;;;;12.18;7.53;;;461.30;2380.80;;;;;;4960698;28;20386;-88
2021/07/23 04:01:19;;;;;;;10.55;8.07;;;461.40;2380.80;;;;;;4960766;28;20050;-87
2021/07/23 04:03:44;;;;;;;10.82;7.25;;;461.40;2380.80;;;;;;4960782;28;20460;-87
2021/07/23 04:06:10;;;;;;;9.85;7.90;;;461.40;2380.80;;;;;;4960753;28;20391;-88
2021/07/23 04:08:39;;;;;;;12.27;8.40;;;461.40;2380.80;;;;;;4960640;28;20027;-87
2021/07/23 04:11:05;;;;;;;12.15;8.93;;;461.50;2380.80;;;;;;4960692;28;20027;-88
2021/07/23 04:13:31;;;;;;;14.80;8.65;;;461.30;2380.80;;;;;;4960755;28;20061;-88
2021/07/23 04:15:57;;;;;;;11.82;7.60;;;461.40;2380.80;;;;;;4960420;28;20058;-88
2021/07/23 04:18:22;;;;;;;11.05;8.52;;;461.40;2380.80;;;;;;4960519;28;20035;-88
2021/07/23 04:20:48;;;;;;;12.93;7.72;;;461.40;2380.80;;;;;;4960239;28;20564;-87
2021/07/23 04:23:14;;;;;;;14.05;10.00;;;461.40;2380.80;;;;;;4960202;28;20133;-88
2021/07/23 04:25:40;;;;;;;12.90;8.88;;;461.30;2380.80;;;;;;4960407;28;20114;-88
2021/07/23 04:28:06;;;;;;;13.85;9.10;;;461.20;2380.80;;;;;;4960466;28;20035;-87
2021/07/23 04:30:33;;;;;;;12.95;9.05;;;461.20;2380.80;;;;;;4960198;28;20027;-87
2021/07/23 04:32:59;;;;;;;15.35;8.80;;;461.30;2380.80;;;;;;4960447;28;20487;-88
2021/07/23 04:35:25;;;;;;;15.85;8.85;;;461.50;2380.80;;;;;;4959869;28;20030;-87
2021/07/23 04:37:50;;;;;;;17.30;9.48;;;461.60;2380.80;;;;;;4959981;28;20026;-87
2021/07/23 04:40:16;;;;;;;19.45;10.80;;;461.50;2380.80;;;;;;4959764;28;20023;-88
2021/07/23 04:42:42;;;;;;;22.50;8.93;;;461.60;2380.80;;;;;;4959781;28;20031;-87
2021/07/23 04:45:09;;;;;;;17.73;10.93;;;461.50;2380.80;;;;;;4959803;28;20035;-88
2021/07/23 04:47:34;;;;;;;18.25;9.70;;;461.40;2380.80;;;;;;4959682;28;20031;-88
2021/07/23 04:50:01;;;;;;;21.13;10.18;;;461.50;2380.80;;;;;;4959138;28;20037;-87
2021/07/23 04:52:27;;;;;;;14.65;10.13;;;461.40;2380.80;;;;;;4960035;28;20425;-88
2021/07/23 04:54:53;;;;;;;21.73;10.07;;;461.40;2380.80;;;;;;4960124;28;20475;-89
2021/07/23 04:57:26;;;;;;;18.15;12.27;;;461.40;2380.80;;;;;;4959934;28;20026;-89
2021/07/23 04:59:52;;;;;;;15.95;9.45;;;461.50;2380.80;;;;;;4959977;28;20491;-88
2021/07/23 05:02:18;;;;;;;16.80;9.45;;;461.30;2380.80;;;;;;4959747;28;20035;-88
2021/07/23 05:04:44;;;;;;;14.68;9.43;;;461.20;2380.80;;;;;;4959947;28;20023;-89
2021/07/23 05:07:10;;;;;;;12.48;8.38;;;461.40;2380.80;;;;;;4959964;28;20476;-89
2021/07/23 05:09:35;;;;;;;13.57;9.02;;;461.60;2380.80;;;;;;4959549;28;20026;-88
2021/07/23 05:12:02;;;;;;;13.00;8.57;;;461.70;2380.80;;;;;;4959335;28;20019;-87
2021/07/23 05:14:31;;;;;;;15.45;9.27;;;461.70;2380.80;;;;;;4959533;28;20062;-88
2021/07/23 05:17:00;;;;;;;16.10;9.07;;;461.70;2380.80;;;;;;4959190;28;20495;-88
2021/07/23 05:19:27;;;;;;;14.85;9.13;;;486.40;2380.80;;;;;;4959183;28;20031;-87
2021/07/23 05:21:53;;;;;;;13.88;9.32;;;486.50;2380.80;;;;;;4959211;28;20051;-86
2021/07/23 05:24:18;;;;;;;15.23;8.07;;;486.40;2380.80;;;;;;4959115;28;20058;-87
2021/07/23 05:26:44;;;;;;;16.13;10.10;;;486.50;2380.80;;;;;;4959112;28;20487;-86
2021/07/23 05:29:10;;;;;;;12.20;8.63;;;486.50;2380.80;;;;;;4958923;28;20031;-87
2021/07/23 05:31:39;;;;;;;12.98;8.93;;;486.50;2380.80;;;;;;4958753;28;20071;-88
2021/07/23 05:34:05;;;;;;;14.93;8.68;;;486.70;2380.80;;;;;;4959257;28;20469;-88
2021/07/23 05:36:31;;;;;;;11.98;8.23;;;486.70;2380.80;;;;;;4961153;28;20023;-88
2021/07/23 05:38:57;;;;;;;11.80;8.95;;;486.80;2380.80;;;;;;4962093;28;20113;-89
2021/07/23 05:41:23;;;;;;;14.63;9.30;;;486.80;2380.80;;;;;;4959491;28;20081;-88
2021/07/23 05:43:49;;;;;;;17.40;8.98;;;486.90;2380.80;;;;;;4959326;28;20492;-89
2021/07/23 05:46:15;;;;;;;9.98;8.43;;;487.00;2380.80;;;;;;4959066;28;20027;-88
2021/07/23 05:48:41;;;;;;;12.07;8.32;;;487.20;2380.80;;;;;;4958909;28;20058;-87
2021/07/23 05:51:09;;;;;;;14.52;8.38;;;512.00;2380.80;;;;;;4959232;28;20023;-88
2021/07/23 05:53:35;;;;;;;15.95;8.07;;;486.90;2380.80;;;;;;4959073;28;20457;-88
2021/07/23 05:56:02;;;;;;;13.15;8.35;;;487.30;2380.80;;;;;;4958780;28;20117;-87
2021/07/23 05:58:29;;;;;;;13.02;7.78;;;512.00;2380.80;;;;;;4958960;28;20118;-87
2021/07/23 06:00:55;;;;;;;14.13;7.30;;;487.20;2380.80;;;;;;4958720;28;20023;-88
2021/07/23 06:03:21;;;;;;;11.50;7.35;;;512.20;2380.80;;;;;;4958661;28;20035;-88
2021/07/23 06:05:47;;;;;;;11.88;8.02;;;512.30;2380.80;;;;;;4959058;28;20043;-87
2021/07/23 06:08:14;;;;;;;15.95;7.28;;;512.40;2380.80;;;;;;4958638;28;20109;-87
2021/07/23 06:10:40;;;;;;;12.60;8.02;;;512.70;2380.80;;;;;;4958484;28;20023;-88
2021/07/23 06:13:06;;;;;;;18.67;8.60;;;512.60;2380.80;;;;;;4958594;28;20027;-88
2021/07/23 06:15:32;;;;;;;14.82;8.32;;;512.70;2380.80;;;;;;4958568;28;20026;-87
2021/07/23 06:18:01;;;;;;;13.52;8.15;;;512.90;2380.80;;;;;;4958198;28;20473;-87
2021/07/23 06:20:26;;;;;;;9.80;8.05;;;537.60;2406.40;;;;;;4958457;28;20019;-86
2021/07/23 06:22:56;;;;;;;11.82;7.22;;;537.70;2406.40;;;;;;4959399;28;20030;-86
2021/07/23 06:25:23;;;;;;;11.52;7.70;;;537.60;2406.40;;;;;;4958390;28;20101;-88
2021/07/23 06:27:49;;;;;;;14.02;7.50;;;537.90;2406.40;;;;;;4958506;28;20027;-87
2021/07/23 06:30:15;;;;;;;12.70;8.00;;;538.00;2406.40;;;;;;4957970;28;20118;-88
2021/07/23 06:32:41;;;;;;;12.73;7.60;;;538.10;2406.40;;;;;;4957839;28;20082;-88
2021/07/23 06:35:07;;;;;;;9.52;7.28;;;538.10;2406.40;;;;;;4958126;28;20058;-88
2021/07/23 06:37:33;;;;;;;10.70;8.23;;;538.50;2406.40;;;;;;4958306;28;20125;-88
2021/07/23 06:39:59;;;;;;;13.45;8.27;;;538.40;2406.40;;;;;;4958695;28;20023;-89
2021/07/23 06:42:25;;;;;;;10.88;7.72;;;563.20;2432.00;;;;;;4958610;28;20496;-88
2021/07/23 06:44:51;;;;;;;11.68;7.85;;;563.20;2432.00;;;;;;4958011;28;20029;-88
2021/07/23 06:47:18;;;;;;;11.88;7.63;;;563.40;2432.00;;;;;;4958030;28;20035;-89
2021/07/23 06:49:44;;;;;;;16.45;9.32;;;563.50;2432.00;;;;;;4958392;28;20393;-88
2021/07/23 06:52:10;;;;;;;15.05;7.60;;;563.60;2432.00;;;;;;4958255;28;20027;-87
2021/07/23 06:54:36;;;;;;;12.73;8.38;;;563.60;2432.00;;;;;;4958085;28;20057;-88
2021/07/23 06:57:05;;;;;;;12.07;7.10;;;563.60;2432.00;;;;;;4958140;28;20570;-88
2021/07/23 06:59:33;;;;;;;10.43;7.43;;;563.90;2432.00;;;;;;4958046;28;20050;-87
2021/07/23 07:01:59;;;;;;;9.52;6.85;;;563.90;2432.00;;;;;;4948922;29;20501;-88
2021/07/23 07:04:28;;;;;;;9.77;7.18;;;564.10;2432.00;;;;;;4943959;28;20099;-88
2021/07/23 07:06:55;;;;;;;11.85;8.00;;;588.80;2432.00;;;;;;4958274;28;20055;-88
2021/07/23 07:09:26;;;;;;;11.80;7.47;;;588.90;2432.00;;;;;;4958183;28;20469;-88
2021/07/23 07:11:52;;;;;;;14.50;7.45;;;589.20;2432.00;;;;;;4958144;28;20077;-87
2021/07/23 07:14:21;;;;;;;13.30;7.78;;;589.30;2432.00;;;;;;4959796;28;20031;-87
2021/07/23 07:16:47;;;;;;;9.13;7.22;;;589.40;2432.00;;;;;;4948085;29;20032;-87
2021/07/23 07:19:13;;;;;;;8.50;6.72;;;589.40;2432.00;;;;;;4942200;29;20027;-87
2021/07/23 07:21:45;;;;;;;9.48;7.43;;;589.70;2432.00;;;;;;4942190;29;20028;-88
2021/07/23 07:24:11;;;;;;;14.18;7.35;;;614.40;2432.00;;;;;;4942556;29;20051;-88
2021/07/23 07:26:37;;;;;;;11.98;8.25;;;614.40;2432.00;;;;;;4942422;29;20039;-88
2021/07/23 07:29:03;;;;;;;14.75;8.43;;;589.70;2432.00;;;;;;4941975;29;20385;-87
2021/07/23 07:31:29;;;;;;;8.68;6.88;;;614.50;2432.00;;;;;;4955456;28;20054;-88
2021/07/23 07:33:56;;;;;;;12.57;7.65;;;614.40;2432.00;;;;;;4961754;28;20074;-88
2021/07/23 07:36:22;;;;;;;12.90;8.32;;;614.40;2432.00;;;;;;4961354;28;20035;-87
2021/07/23 07:38:48;;;;;;;14.27;8.77;;;614.50;2432.00;;;;;;4955308;28;20392;-87
2021/07/23 07:41:18;;;;;;;14.50;7.82;;;614.80;2432.00;;;;;;4961055;28;20014;-88
2021/07/23 07:43:44;;;;;;;10.52;7.78;;;614.80;2432.00;;;;;;4961203;28;20023;-87
2021/07/23 07:46:10;;;;;;;14.52;8.93;;;614.90;2432.00;;;;;;4961102;28;20475;-88
2021/07/23 07:48:36;;;;;;;12.25;8.38;;;615.10;2432.00;;;;;;4960889;28;20031;-88
2021/07/23 07:51:02;;;;;;;11.80;7.18;;;615.20;2432.00;;;;;;4946801;29;20039;-84
2021/07/23 07:53:28;;;;;;;11.07;7.57;;;615.00;2432.00;;;;;;4941481;29;20042;-82
2021/07/23 07:55:54;;;;;;;12.43;7.30;;;615.30;2432.00;;;;;;4943067;29;20102;-83
2021/07/23 07:58:20;;;;;;;10.05;7.43;;;640.00;2432.00;;;;;;4948139;29;20033;-83
2021/07/23 08:00:46;;;;;;;11.45;7.53;;;640.20;2432.00;;;;;;4944671;28;20029;-83
2021/07/23 08:03:11;;;;;;;13.93;7.63;;;640.20;2432.00;;;;;;4976971;28;20153;-85
2021/07/23 08:05:37;;;;;;;9.05;6.72;;;615.30;2432.00;;;;;;4960875;28;20096;-88
2021/07/23 08:08:08;;;;;;;8.27;6.57;;;640.10;2432.00;;;;;;4960826;28;20113;-88
2021/07/23 08:10:36;;;;;;;11.98;7.22;;;640.40;2432.00;;;;;;4960735;28;20037;-89
2021/07/23 08:13:03;;;;;;;11.48;8.00;;;640.50;2432.00;;;;;;4960199;28;20033;-87
2021/07/23 08:15:29;;;;;;;11.45;8.35;;;640.80;2432.00;;;;;;4959796;28;20042;-89
2021/07/23 08:17:55;;;;;;;12.35;7.43;;;640.70;2432.00;;;;;;4960729;28;20027;-88
2021/07/23 08:20:21;;;;;;;11.48;7.30;;;665.70;2432.00;;;;;;4965397;28;20034;-88
2021/07/23 08:22:47;;;;;;;13.38;8.18;;;665.60;2432.00;;;;;;4964876;28;20026;-87
2021/07/23 08:25:13;;;;;;;12.63;7.60;;;665.80;2432.00;;;;;;4960775;28;20035;-89
2021/07/23 08:27:39;;;;;;;10.75;6.85;;;665.90;2432.00;;;;;;4960050;28;20023;-88
2021/07/23 08:30:06;;;;;;;10.88;7.78;;;665.90;2432.00;;;;;;4960099;28;20088;-88
2021/07/23 08:32:37;;;;;;;9.60;6.78;;;665.70;2432.00;;;;;;4954350;28;20047;-90
2021/07/23 08:35:04;;;;;;;9.73;6.72;;;665.90;2432.00;;;;;;4959865;28;20119;-86
2021/07/23 08:37:36;;;;;;;10.27;6.90;;;666.00;2432.00;;;;;;4977237;28;20038;-89
2021/07/23 08:40:05;;;;;;;10.18;6.68;;;666.30;2432.00;;;;;;4959826;28;20037;-86
2021/07/23 08:42:33;;;;;;;10.13;6.30;;;666.00;2432.00;;;;;;4960423;28;20496;-89
2021/07/23 08:45:01;;;;;;;9.40;6.60;;;666.00;2432.00;;;;;;4944375;29;20125;-90
2021/07/23 08:47:27;;;;;;;12.32;8.18;;;666.00;2432.00;;;;;;4954670;28;20030;-87
2021/07/23 08:49:54;;;;;;;9.98;7.47;;;666.30;2432.00;;;;;;4965534;28;20539;-86
2021/07/23 08:52:42;;;;;;;10.27;7.10;;;666.30;2432.00;;;;;;4954092;28;20101;-88
2021/07/23 08:55:10;;;;;;;12.35;7.30;;;691.20;2432.00;;;;;;4922952;29;20544;-87
2021/07/23 08:57:36;;;;;;;9.60;6.57;;;691.40;2432.00;;;;;;4945784;29;20429;-87
2021/07/23 09:00:09;;;;;;;8.50;6.53;;;691.40;2432.00;;;;;;4957024;29;20025;-88
2021/07/23 09:02:56;;;;;;;10.73;6.50;;;691.40;2432.00;;;;;;4921434;29;20023;-88
2021/07/23 09:05:33;;;;;;;11.40;6.75;;;691.80;2432.00;;;;;;4921685;29;20395;-87
2021/07/23 09:08:15;;;;;;;12.85;7.72;;;692.00;2432.00;;;;;;4921358;29;20155;-91
2021/07/23 09:10:46;;;;;;;12.52;8.50;;;692.10;2432.00;;;;;;4929324;29;20019;-90
2021/07/23 09:13:27;;;;;;;11.13;6.68;;;691.80;2432.00;;;;;;4958001;28;20181;-87
2021/07/23 09:15:57;;;;;;;10.77;6.47;;;692.10;2432.00;;;;;;4959209;28;20033;-87
2021/07/23 09:18:32;;;;;;;9.93;6.22;;;691.80;2432.00;;;;;;4959707;28;20376;-88
2021/07/23 09:21:01;;;;;;;11.43;7.05;;;691.90;2432.00;;;;;;4959715;28;20027;-86
2021/07/23 09:23:46;;;;;;;9.43;7.40;;;691.90;2432.00;;;;;;4959350;28;20027;-88
2021/07/23 09:26:18;;;;;;;9.35;7.03;;;716.90;2432.00;;;;;;4958401;28;20027;-90
2021/07/23 09:28:45;;;;;;;10.90;7.78;;;717.30;2432.00;;;;;;4940385;29;20524;-86
2021/07/23 09:31:21;;;;;;;12.95;9.20;;;717.30;2406.40;;;;;;4940739;28;20047;-88
2021/07/23 09:33:52;;;;;;;9.48;7.30;;;742.40;2432.00;;;;;;4959148;28;20026;-89
2021/07/23 09:36:18;;;;;;;11.67;6.63;;;;;;;;;;4946127;28;20046;-90
2021/07/23 09:38:52;;;;;;;9.85;7.57;;;743.00;2329.60;;;;;;4957035;28;20559;-91
2021/07/23 09:41:21;;;;;;;10.48;6.88;;;743.00;2278.40;;;;;;4954699;29;20110;-88
2021/07/23 09:43:56;;;;;;;9.50;6.35;;;743.30;2278.40;;;;;;4960057;28;20437;-84
2021/07/23 09:46:26;;;;;;;8.23;5.53;;;768.00;2252.80;;;;;;4958043;28;20031;-82
2021/07/23 09:48:53;;;;;;;8.50;5.32;;;768.10;2124.80;;;;;;4958309;28;20030;-80
2021/07/23 09:51:21;;;;;;;9.43;6.30;;;743.00;2150.40;;;;;;4958369;28;20023;-83
2021/07/23 09:53:48;;;;;;;11.07;7.55;;;743.10;2201.60;;;;;;4958062;28;20051;-83
2021/07/23 09:56:13;;;;;;;13.93;6.78;;;768.00;2252.80;;;;;;4966888;28;20035;-81
2021/07/23 09:59:01;;;;;;;9.90;6.60;;;768.20;2278.40;;;;;;4948927;29;20031;-83
2021/07/23 10:01:29;;;;;;;10.15;6.18;;;768.20;2150.40;;;;;;4940881;29;20074;-81
2021/07/23 10:03:59;;;;;;;15.40;7.60;;;768.10;2201.60;;;;;;4946858;28;20063;-83
2021/07/23 10:06:31;;;;;;;10.73;6.57;;;768.50;2201.60;;;;;;4957604;28;20039;-81
2021/07/23 10:09:01;;;;;;;;;;;768.70;2150.40;;;;;;4955370;28;20077;-82
2021/07/23 10:11:27;;;;;;;10.60;6.53;;;768.90;2150.40;;;;;;4948420;28;20364;-81
2021/07/23 10:13:56;;;;;;;10.00;6.35;;;793.70;2124.80;;;;;;4958172;28;20027;-88
2021/07/23 10:16:23;;;;;;;9.43;6.20;;;793.70;2073.60;;;;;;4959588;28;20038;-87
2021/07/23 10:18:50;;;;;;;7.20;5.25;;;793.70;2022.40;;;;;;4958924;28;20039;-89
2021/07/23 10:21:16;;;;;;;8.40;5.72;;;768.50;2022.40;;;;;;4957725;28;20026;-87
2021/07/23 10:23:44;;;;;;;9.70;6.18;;;768.80;2073.60;;;;;;4958558;28;20027;-87
2021/07/23 10:26:12;;;;;;;8.15;6.68;;;793.70;2099.20;;;;;;4960100;28;20054;-87
2021/07/23 10:28:38;;;;;;;7.72;5.90;;;794.00;2048.00;;;;;;4959997;28;20086;-88
2021/07/23 10:31:21;;;;;;;8.63;5.32;;;793.80;1971.20;;;;;;4958162;28;20049;-86
2021/07/23 10:33:55;;;;;;;7.93;5.75;;;768.70;1996.80;;;;;;4958340;28;20027;-87
2021/07/23 10:36:27;;;;;;;14.25;6.35;;;793.60;2022.40;;;;;;4957734;28;20039;-87
2021/07/23 10:39:05;;;;;;;;;;;794.10;2022.40;;;;;;4959072;28;20445;-87
2021/07/23 10:41:38;;;;;;;10.00;5.95;;;794.20;1971.20;;;;;;4959272;28;19949;-87
2021/07/23 10:44:32;;;;;;;9.15;5.25;;;819.30;1920.00;;;;;;4959589;28;20035;-87
2021/07/23 10:46:59;;;;;;;8.15;4.97;;;794.10;1868.80;;;;;;4958810;28;20030;-87
2021/07/23 10:49:25;;;;;;;10.40;5.30;;;794.20;1843.20;;;;;;4960945;28;20556;-87
2021/07/23 10:52:01;;;;;;;6.88;5.03;;;794.40;1868.80;;;;;;4962674;28;20054;-87
2021/07/23 10:54:31;;;;;;;6.57;5.15;;;794.20;1868.80;;;;;;4962247;28;20030;-87
2021/07/23 10:57:06;;;;;;;9.07;5.45;;;794.00;1868.80;;;;;;4961608;28;20499;-88
2021/07/23 10:59:50;;;;;;;9.13;5.03;;;794.00;1843.20;;;;;;4961835;28;20031;-87
2021/07/23 11:02:18;;;;;;;8.25;5.28;;;794.20;1843.20;;;;;;4961629;28;20081;-87
2021/07/23 11:04:47;;;;;;;6.68;4.90;;;794.50;1817.60;;;;;;4961316;28;20057;-88
2021/07/23 11:07:15;;;;;;;7.72;5.03;;;794.10;1817.60;;;;;;4961625;28;20031;-88
2021/07/23 11:09:45;;;;;;;7.90;5.38;;;794.20;1792.00;;;;;;4961716;28;20125;-87
2021/07/23 11:12:25;;;;;;;10.27;5.25;;;819.60;1792.00;;;;;;4961438;28;20034;-88
2021/07/23 11:14:52;;;;;;;8.35;5.53;;;820.10;1715.20;;;;;;4961632;28;20027;-87
2021/07/23 11:17:18;;;;;;;7.35;5.13;;;819.50;1715.20;;;;;;4961220;28;20058;-86
2021/07/23 11:19:53;;;;;;;6.88;5.10;;;819.80;1689.60;;;;;;4961382;28;20420;-87
2021/07/23 11:22:49;;;;;;;6.72;4.80;;;819.80;1715.20;;;;;;4961554;28;20050;-87
2021/07/23 11:25:16;;;;;;;8.13;5.50;;;819.30;1689.60;;;;;;4949502;28;20082;-87
2021/07/23 11:27:42;;;;;;;8.27;5.63;;;794.50;1664.00;;;;;;4961143;28;20027;-89
2021/07/23 11:30:16;;;;;;;7.43;5.05;;;794.20;1740.80;;;;;;4961140;28;20404;-87
2021/07/23 11:32:56;;;;;;;8.38;7.03;;;794.20;1766.40;;;;;;4960844;28;20400;-87
2021/07/23 11:35:24;;;;;;;8.13;5.13;;;794.50;1766.40;;;;;;4961006;28;20424;-86
2021/07/23 11:37:51;;;;;;;7.18;5.03;;;794.20;1689.60;;;;;;4961370;28;20372;-85
2021/07/23 11:40:19;;;;;;;10.32;5.47;;;794.10;1740.80;;;;;;4960836;28;20058;-88
2021/07/23 11:42:50;;;;;;;6.90;4.93;;;794.20;1740.80;;;;;;4961288;28;20380;-88
2021/07/23 11:45:20;;;;;;;;;;;819.30;1689.60;;;;;;4961281;28;20550;-89
2021/07/23 11:47:56;;;;;;;7.68;4.85;;;794.50;1689.60;;;;;;4961037;28;19913;-88
2021/07/23 11:50:26;;;;;;;7.75;4.90;;;794.00;1715.20;;;;;;4961188;28;20030;-89
2021/07/23 11:53:03;;;;;;;8.30;5.63;;;768.90;1689.60;;;;;;4960550;28;20481;-89
2021/07/23 11:55:43;;;;;;;6.63;5.13;;;768.70;1740.80;;;;;;4960863;28;20035;-87
2021/07/23 11:58:30;;;;;;;7.30;4.75;;;768.50;1792.00;;;;;;4961506;28;20090;-87
2021/07/23 12:00:56;;;;;;;8.90;4.70;;;768.90;1766.40;;;;;;4963106;28;20042;-86
2021/07/23 12:03:26;;;;;;;7.30;4.95;;;794.20;1715.20;;;;;;4968877;28;20081;-85
2021/07/23 12:05:52;;;;;;;7.00;4.93;;;819.30;1664.00;;;;;;4964360;28;20038;-87
2021/07/23 12:08:20;;;;;;;6.10;5.00;;;819.70;1638.40;;;;;;4960501;28;20428;-86
2021/07/23 12:10:48;;;;;;;8.60;5.80;;;844.80;1561.60;;;;;;4960801;28;20078;-87
2021/07/23 12:13:16;;;;;;;8.10;5.10;;;820.00;1561.60;;;;;;4960152;28;20033;-86
2021/07/23 12:15:47;;;;;;;7.30;4.57;;;820.10;1561.60;;;;;;4960632;28;20027;-86